createdAt,value
2019-01-02T00:01:15.941Z,77
2019-01-02T00:06:42.580Z,77
2019-01-02T00:12:09.233Z,76
2019-01-02T00:17:36.827Z,76
2019-01-02T00:23:03.441Z,76
2019-01-02T00:28:30.097Z,76
2019-01-02T00:33:56.730Z,76
2019-01-02T00:39:24.374Z,76
2019-01-02T00:44:50.981Z,76
2019-01-02T00:50:18.630Z,76
2019-01-02T00:55:45.272Z,76
2019-01-02T01:01:12.912Z,76
2019-01-02T01:06:39.656Z,75
2019-01-02T01:12:06.229Z,75
2019-01-02T01:17:32.854Z,75
2019-01-02T01:23:00.542Z,75
2019-01-02T01:28:28.155Z,75
2019-01-02T01:33:55.769Z,75
2019-01-02T01:39:23.459Z,75
2019-01-02T01:44:50.034Z,75
2019-01-02T01:50:17.632Z,75
2019-01-02T01:55:44.260Z,75
2019-01-02T02:01:10.874Z,75
2019-01-02T02:06:37.491Z,75
2019-01-02T02:12:04.124Z,75
2019-01-02T02:17:31.787Z,75
2019-01-02T02:22:59.391Z,75
2019-01-02T02:28:26.992Z,75
2019-01-02T02:33:54.637Z,75
2019-01-02T02:39:21.341Z,75
2019-01-02T02:44:48.912Z,75
2019-01-02T02:50:16.503Z,75
2019-01-02T02:55:44.093Z,75
2019-01-02T03:01:10.746Z,75
2019-01-02T03:06:37.389Z,75
2019-01-02T03:12:04.974Z,75
2019-01-02T03:17:31.606Z,75
2019-01-02T03:22:59.210Z,74
2019-01-02T03:28:25.795Z,74
2019-01-02T03:33:53.441Z,74
2019-01-02T03:39:20.066Z,74
2019-01-02T03:44:47.638Z,74
2019-01-02T03:50:14.231Z,74
2019-01-02T03:55:40.852Z,74
2019-01-02T04:01:07.476Z,73
2019-01-02T04:06:35.051Z,73
2019-01-02T04:12:02.774Z,73
2019-01-02T04:17:30.284Z,73
2019-01-02T04:22:56.889Z,73
2019-01-02T04:28:24.484Z,72
2019-01-02T04:33:51.073Z,72
2019-01-02T04:39:18.627Z,72
2019-01-02T04:44:46.297Z,72
2019-01-02T04:50:13.821Z,71
2019-01-02T04:55:41.455Z,71
2019-01-02T05:01:09.013Z,71
2019-01-02T05:06:36.588Z,70
2019-01-02T05:12:04.183Z,70
2019-01-02T05:17:31.777Z,70
2019-01-02T05:22:58.357Z,70
2019-01-02T05:28:25.012Z,70
2019-01-02T05:33:52.532Z,70
2019-01-02T05:39:19.037Z,69
2019-01-02T05:44:47.045Z,69
2019-01-02T05:50:13.201Z,69
2019-01-02T05:55:40.752Z,69
2019-01-02T06:01:08.307Z,69
2019-01-02T06:06:34.867Z,69
2019-01-02T06:12:01.504Z,69
2019-01-02T06:17:27.973Z,69
2019-01-02T06:22:54.536Z,69
2019-01-02T06:28:21.045Z,68
2019-01-02T06:33:47.616Z,68
2019-01-02T06:39:14.172Z,68
2019-01-02T06:44:41.697Z,68
2019-01-02T06:50:09.267Z,68
2019-01-02T06:55:35.756Z,68
2019-01-02T07:01:03.272Z,68
2019-01-02T07:06:29.787Z,68
2019-01-02T07:11:57.341Z,68
2019-01-02T07:17:24.825Z,68
2019-01-02T07:22:51.370Z,68
2019-01-02T07:28:17.896Z,68
2019-01-02T07:33:44.362Z,68
2019-01-02T07:39:11.862Z,68
2019-01-02T07:44:38.400Z,68
2019-01-02T07:50:04.919Z,68
2019-01-02T07:55:32.442Z,68
2019-01-02T08:00:59.909Z,68
2019-01-02T08:06:27.410Z,68
2019-01-02T08:11:54.912Z,68
2019-01-02T08:17:21.399Z,67
2019-01-02T08:22:47.886Z,67
2019-01-02T08:28:14.794Z,67
2019-01-02T08:33:40.925Z,67
2019-01-02T08:39:08.421Z,67
2019-01-02T08:44:35.022Z,67
2019-01-02T08:50:02.237Z,67
2019-01-02T08:55:28.977Z,67
2019-01-02T09:00:56.511Z,66
2019-01-02T09:06:23.079Z,66
2019-01-02T09:11:50.635Z,66
2019-01-02T09:55:27.018Z,65
2019-01-02T10:00:53.453Z,65
2019-01-02T10:06:20.037Z,64
2019-01-02T10:11:47.737Z,64
2019-01-02T10:17:14.168Z,64
2019-01-02T10:22:41.747Z,64
2019-01-02T10:28:08.364Z,63
2019-01-02T10:33:35.990Z,63
2019-01-02T10:39:03.538Z,63
2019-01-02T10:44:30.135Z,63
2019-01-02T10:49:56.741Z,62
2019-01-02T10:55:24.355Z,62
2019-01-02T11:00:50.949Z,62
2019-01-02T11:06:17.702Z,62
2019-01-02T11:11:45.188Z,62
2019-01-02T11:17:12.779Z,62
2019-01-02T11:28:07.104Z,61
2019-01-02T11:33:34.727Z,61
2019-01-02T11:39:02.329Z,61
2019-01-02T11:44:28.965Z,61
2019-01-02T11:49:55.594Z,61
2019-01-02T11:55:22.396Z,61
2019-01-02T12:00:49.962Z,61
2019-01-02T12:06:16.577Z,61
2019-01-02T12:11:44.168Z,61
2019-01-02T12:17:10.843Z,60
2019-01-02T12:22:38.489Z,60
2019-01-02T12:28:05.214Z,60
2019-01-02T12:33:31.835Z,60
2019-01-02T12:38:58.487Z,60
2019-01-02T12:44:26.266Z,60
2019-01-02T12:49:52.753Z,60
2019-01-02T12:55:20.621Z,60
2019-01-02T13:00:47.789Z,60
2019-01-02T13:06:14.717Z,59
2019-01-02T13:11:41.346Z,59
2019-01-02T13:17:07.978Z,59
2019-01-02T13:22:35.662Z,59
2019-01-02T13:28:02.322Z,59
2019-01-02T13:33:30.631Z,59
2019-01-02T13:38:56.588Z,59
2019-01-02T13:44:23.378Z,59
2019-01-02T13:49:50.922Z,59
2019-01-02T13:55:17.718Z,59
2019-01-02T14:00:45.375Z,59
2019-01-02T14:06:12.798Z,59
2019-01-02T14:11:39.449Z,59
2019-01-02T14:17:06.078Z,59
2019-01-02T14:22:33.720Z,59
2019-01-02T14:28:00.331Z,59
2019-01-02T14:33:27.842Z,59
2019-01-02T14:38:54.617Z,59
2019-01-02T14:44:21.296Z,59
2019-01-02T14:49:48.782Z,59
2019-01-02T14:55:15.378Z,59
2019-01-02T15:00:43.016Z,59
2019-01-02T15:06:14.533Z,59
2019-01-02T15:11:37.121Z,59
2019-01-02T15:17:04.663Z,59
2019-01-02T15:22:31.338Z,60
2019-01-02T15:27:58.768Z,60
2019-01-02T15:33:26.756Z,60
2019-01-02T15:38:54.023Z,60
2019-01-02T15:44:20.428Z,60
2019-01-02T15:49:47.329Z,60
2019-01-02T15:55:14.493Z,60
2019-01-02T16:00:41.910Z,61
2019-01-02T16:06:08.465Z,61
2019-01-02T16:11:35.971Z,61
2019-01-02T16:17:02.630Z,61
2019-01-02T16:22:28.886Z,61
2019-01-02T16:27:56.409Z,61
2019-01-02T16:33:22.895Z,61
2019-01-02T16:38:49.348Z,61
2019-01-02T16:44:15.836Z,61
2019-01-02T16:49:42.678Z,61
2019-01-02T16:55:09.778Z,62
2019-01-02T17:00:36.228Z,62
2019-01-02T17:06:03.770Z,62
2019-01-02T17:11:30.989Z,62
2019-01-02T17:16:56.615Z,62
2019-01-02T17:22:23.064Z,62
2019-01-02T17:27:49.531Z,62
2019-01-02T17:33:16.990Z,62
2019-01-02T17:38:43.438Z,62
2019-01-02T17:44:10.866Z,62
2019-01-02T17:49:37.331Z,62
2019-01-02T17:55:03.927Z,62
2019-01-02T18:00:31.335Z,62
2019-01-02T18:05:58.917Z,62
2019-01-02T18:11:26.146Z,62
2019-01-02T18:16:52.545Z,62
2019-01-02T18:27:46.603Z,62
2019-01-02T18:33:13.898Z,63
2019-01-02T18:38:41.329Z,63
2019-01-02T18:44:08.065Z,63
2019-01-02T18:49:34.130Z,63
2019-01-02T18:55:00.649Z,63
2019-01-02T19:00:26.988Z,63
2019-01-02T19:05:53.418Z,64
2019-01-02T19:11:20.801Z,64
2019-01-02T19:16:48.198Z,64
2019-01-02T19:22:15.682Z,64
2019-01-02T19:27:41.975Z,64
2019-01-02T19:33:08.526Z,65
2019-01-02T19:38:34.742Z,65
2019-01-02T19:44:01.094Z,65
2019-01-02T19:49:28.488Z,65
2019-01-02T19:54:54.888Z,65
2019-01-02T20:00:22.282Z,65
2019-01-02T20:05:48.702Z,65
2019-01-02T20:11:15.176Z,66
2019-01-02T20:16:41.452Z,66
2019-01-02T20:22:07.749Z,66
2019-01-02T20:27:35.106Z,66
2019-01-02T20:33:01.566Z,66
2019-01-02T20:38:28.785Z,66
2019-01-02T20:43:56.130Z,66
2019-01-02T20:49:22.467Z,66
2019-01-02T20:54:49.793Z,66
2019-01-02T21:00:16.107Z,67
2019-01-02T21:05:43.489Z,67
2019-01-02T21:11:09.794Z,67
2019-01-02T21:16:37.074Z,67
2019-01-02T21:22:04.429Z,67
2019-01-02T21:27:33.523Z,67
2019-01-02T21:32:59.047Z,67
2019-01-02T21:38:25.413Z,67
2019-01-02T21:43:52.691Z,68
2019-01-02T21:49:21.227Z,68
2019-01-02T21:54:46.482Z,68
2019-01-02T22:00:12.613Z,68
2019-01-02T22:05:39.856Z,68
2019-01-02T22:11:07.137Z,68
2019-01-02T22:16:34.445Z,68
2019-01-02T22:22:00.756Z,68
2019-01-02T22:27:28.064Z,68
2019-01-02T22:32:55.439Z,68
2019-01-02T22:38:22.619Z,68
2019-01-02T22:43:48.957Z,68
2019-01-02T22:49:16.224Z,69
2019-01-02T22:54:42.505Z,69
2019-01-02T23:00:08.861Z,69
2019-01-02T23:05:36.012Z,69
2019-01-02T23:11:02.356Z,69
2019-01-02T23:16:29.569Z,69
2019-01-02T23:21:56.865Z,69
2019-01-02T23:27:24.118Z,69
2019-01-02T23:32:51.402Z,69
2019-01-02T23:38:17.679Z,69
2019-01-02T23:43:44.887Z,70
2019-01-02T23:49:11.171Z,70
2019-01-02T23:54:38.399Z,70
